createdAt,value
2019-01-09T00:01:13.533Z,5.38
2019-01-09T00:03:42.661Z,5.34
2019-01-09T00:06:11.705Z,5.52
2019-01-09T00:08:40.885Z,5.61
2019-01-09T00:11:10.217Z,5.61
2019-01-09T00:13:39.629Z,5.58
2019-01-09T00:16:08.834Z,5.62
2019-01-09T00:18:37.851Z,5.61
2019-01-09T00:21:06.857Z,5.41
2019-01-09T00:23:35.885Z,5.31
2019-01-09T00:26:05.235Z,5.24
2019-01-09T00:28:34.622Z,5.24
2019-01-09T00:31:03.969Z,5.30
2019-01-09T00:33:33.239Z,5.28
2019-01-09T00:36:02.626Z,5.35
2019-01-09T00:38:31.689Z,5.35
2019-01-09T00:41:00.713Z,5.47
2019-01-09T00:43:29.723Z,5.54
2019-01-09T00:45:59.232Z,5.54
2019-01-09T00:48:28.316Z,5.55
2019-01-09T00:50:57.381Z,5.62
2019-01-09T00:53:26.422Z,5.61
2019-01-09T00:55:55.796Z,5.74
2019-01-09T00:58:25.017Z,5.78
2019-01-09T01:00:54.129Z,5.67
2019-01-09T01:03:50.026Z,5.74
2019-01-09T01:07:12.263Z,5.63
2019-01-09T01:10:30.788Z,5.61
2019-01-09T01:13:27.664Z,5.60
2019-01-09T01:16:38.286Z,5.45
2019-01-09T01:19:48.615Z,5.48
2019-01-09T01:23:07.367Z,5.32
2019-01-09T01:25:53.669Z,5.23
2019-01-09T01:29:05.876Z,5.05
2019-01-09T01:32:06.901Z,4.83
2019-01-09T01:35:26.483Z,4.58
2019-01-09T01:38:24.742Z,4.45
2019-01-09T01:41:15.288Z,4.51
2019-01-09T01:44:28.031Z,4.49
2019-01-09T01:47:43.190Z,4.79
2019-01-09T01:50:53.824Z,4.88
2019-01-09T01:53:54.878Z,4.99
2019-01-09T01:57:14.293Z,5.29
2019-01-09T01:59:58.781Z,5.34
2019-01-09T02:03:19.497Z,5.28
2019-01-09T02:06:13.935Z,5.20
2019-01-09T02:09:19.029Z,5.03
2019-01-09T02:12:41.466Z,4.91
2019-01-09T02:15:43.480Z,4.83
2019-01-09T02:18:35.090Z,4.70
2019-01-09T02:21:45.457Z,4.59
2019-01-09T02:25:04.740Z,4.47
2019-01-09T02:28:28.267Z,4.49
2019-01-09T02:31:20.351Z,4.48
2019-01-09T02:33:49.383Z,4.58
2019-01-09T02:36:18.385Z,4.71
2019-01-09T02:38:47.433Z,4.72
2019-01-09T02:41:16.426Z,5.06
2019-01-09T02:43:45.492Z,5.13
2019-01-09T02:46:14.830Z,5.22
2019-01-09T02:48:44.564Z,5.23
2019-01-09T02:51:13.616Z,5.17
2019-01-09T02:53:42.628Z,5.14
2019-01-09T02:56:11.683Z,5.06
2019-01-09T02:58:40.714Z,5.10
2019-01-09T03:01:09.737Z,5.10
2019-01-09T03:03:39.047Z,5.14
2019-01-09T03:06:08.101Z,5.13
2019-01-09T03:08:37.166Z,5.16
2019-01-09T03:11:06.535Z,5.10
2019-01-09T03:13:35.582Z,5.22
2019-01-09T03:16:04.747Z,5.35
2019-01-09T03:18:33.809Z,5.48
2019-01-09T03:21:02.881Z,5.37
2019-01-09T03:23:31.872Z,5.29
2019-01-09T03:26:01.204Z,5.27
2019-01-09T03:28:30.207Z,5.31
2019-01-09T03:30:59.259Z,5.24
2019-01-09T03:33:28.288Z,5.26
2019-01-09T03:35:57.338Z,5.36
2019-01-09T03:38:26.447Z,5.27
2019-01-09T03:40:55.761Z,5.21
2019-01-09T03:43:25.053Z,5.28
2019-01-09T03:45:54.459Z,5.29
2019-01-09T03:48:23.479Z,5.30
2019-01-09T03:50:52.840Z,5.45
2019-01-09T03:53:21.992Z,5.32
2019-01-09T03:55:51.383Z,5.28
2019-01-09T03:58:20.409Z,5.40
2019-01-09T04:00:49.859Z,5.29
2019-01-09T04:03:18.980Z,5.39
2019-01-09T04:05:48.022Z,5.33
2019-01-09T04:08:17.354Z,5.15
2019-01-09T04:10:46.689Z,5.13
2019-01-09T04:13:15.777Z,4.99
2019-01-09T04:15:44.806Z,4.89
2019-01-09T04:18:14.034Z,4.69
2019-01-09T04:20:43.147Z,4.60
2019-01-09T04:23:12.536Z,4.44
2019-01-09T04:25:41.842Z,4.42
2019-01-09T04:28:10.858Z,4.40
2019-01-09T04:30:39.909Z,4.64
2019-01-09T04:33:09.070Z,4.77
2019-01-09T04:35:38.054Z,4.76
2019-01-09T04:38:07.127Z,4.76
2019-01-09T04:40:36.181Z,4.77
2019-01-09T04:43:05.241Z,4.87
2019-01-09T04:45:34.276Z,5.15
2019-01-09T04:48:03.275Z,5.30
2019-01-09T04:50:32.290Z,5.24
2019-01-09T04:53:01.360Z,5.04
2019-01-09T04:55:30.380Z,4.96
2019-01-09T04:57:59.400Z,5.01
2019-01-09T05:00:28.781Z,4.94
2019-01-09T05:02:57.802Z,4.84
2019-01-09T05:05:27.126Z,4.72
2019-01-09T05:07:56.489Z,4.53
2019-01-09T05:10:25.878Z,4.57
2019-01-09T05:12:55.183Z,4.52
2019-01-09T05:15:24.251Z,4.42
2019-01-09T05:17:53.268Z,4.48
2019-01-09T05:20:22.287Z,4.39
2019-01-09T05:22:51.328Z,4.31
2019-01-09T05:25:21.070Z,4.42
2019-01-09T05:27:50.164Z,4.48
2019-01-09T05:30:19.265Z,4.50
2019-01-09T05:32:48.277Z,4.49
2019-01-09T05:35:17.381Z,4.50
2019-01-09T05:37:46.799Z,4.51
2019-01-09T05:40:16.257Z,4.42
2019-01-09T05:42:45.256Z,4.27
2019-01-09T05:45:14.258Z,4.35
2019-01-09T05:47:43.317Z,4.34
2019-01-09T05:50:12.340Z,4.25
2019-01-09T05:52:41.729Z,4.14
2019-01-09T05:55:10.748Z,4.15
2019-01-09T05:57:39.789Z,4.06
2019-01-09T06:00:09.516Z,4.01
2019-01-09T06:02:38.956Z,4.17
2019-01-09T06:05:07.989Z,4.16
2019-01-09T06:07:37.744Z,4.23
2019-01-09T06:10:07.970Z,4.23
2019-01-09T06:12:37.385Z,4.21
2019-01-09T06:15:06.977Z,4.21
2019-01-09T06:17:36.005Z,4.24
2019-01-09T06:20:06.030Z,4.42
2019-01-09T06:22:35.060Z,4.44
2019-01-09T06:25:04.380Z,4.46
2019-01-09T06:27:33.469Z,4.31
2019-01-09T06:30:02.895Z,4.28
2019-01-09T06:32:32.214Z,4.22
2019-01-09T06:35:01.671Z,4.17
2019-01-09T06:37:30.674Z,4.13
2019-01-09T06:39:59.742Z,4.14
2019-01-09T06:42:28.817Z,4.22
2019-01-09T06:44:57.870Z,4.52
2019-01-09T06:47:27.309Z,4.74
2019-01-09T06:49:56.324Z,4.90
2019-01-09T06:52:25.354Z,4.95
2019-01-09T06:54:54.777Z,5.10
2019-01-09T06:57:23.762Z,5.10
2019-01-09T06:59:52.824Z,4.88
2019-01-09T07:02:21.896Z,4.85
2019-01-09T07:04:50.996Z,4.80
2019-01-09T07:07:19.987Z,4.67
2019-01-09T07:09:49.048Z,4.54
2019-01-09T07:12:18.494Z,4.51
2019-01-09T07:14:47.494Z,4.46
2019-01-09T07:17:16.545Z,4.51
2019-01-09T07:19:45.854Z,4.61
2019-01-09T07:22:14.893Z,4.60
2019-01-09T07:24:43.884Z,4.52
2019-01-09T07:27:12.902Z,4.46
2019-01-09T07:29:41.956Z,4.52
2019-01-09T07:32:11.292Z,4.47
2019-01-09T07:34:40.312Z,4.61
2019-01-09T07:37:09.388Z,4.55
2019-01-09T07:39:38.788Z,4.63
2019-01-09T07:42:07.838Z,4.83
2019-01-09T07:44:36.858Z,4.93
2019-01-09T07:47:05.928Z,5.12
2019-01-09T07:49:34.942Z,5.21
2019-01-09T07:52:04.020Z,4.95
2019-01-09T07:54:33.132Z,5.19
2019-01-09T07:57:02.224Z,5.01
2019-01-09T07:59:31.552Z,4.94
2019-01-09T08:02:00.966Z,4.87
2019-01-09T08:04:30.124Z,4.86
2019-01-09T08:06:59.500Z,4.71
2019-01-09T08:09:29.276Z,4.80
2019-01-09T08:11:58.318Z,4.71
2019-01-09T08:14:27.353Z,4.62
2019-01-09T08:16:56.356Z,4.62
2019-01-09T08:19:25.397Z,4.55
2019-01-09T08:21:54.424Z,4.43
2019-01-09T08:24:24.184Z,4.45
2019-01-09T08:26:53.181Z,4.45
2019-01-09T08:29:22.922Z,4.43
2019-01-09T08:31:51.954Z,4.39
2019-01-09T08:34:21.282Z,4.42
2019-01-09T08:36:50.280Z,4.42
2019-01-09T08:39:19.322Z,4.43
2019-01-09T08:41:48.599Z,4.42
2019-01-09T08:44:18.004Z,4.44
2019-01-09T08:46:48.445Z,4.47
2019-01-09T08:49:17.576Z,4.47
2019-01-09T08:51:46.636Z,4.45
2019-01-09T08:54:15.633Z,4.39
2019-01-09T08:56:44.668Z,4.43
2019-01-09T08:59:13.730Z,4.45
2019-01-09T09:01:42.758Z,4.64
2019-01-09T09:04:11.767Z,4.68
2019-01-09T09:06:40.810Z,4.89
2019-01-09T09:09:10.122Z,5.13
2019-01-09T09:11:39.220Z,5.62
2019-01-09T09:14:09.426Z,6.08
2019-01-09T09:16:38.743Z,6.37
2019-01-09T09:19:07.791Z,6.97
2019-01-09T09:21:37.178Z,7.49
2019-01-09T09:24:06.553Z,7.80
2019-01-09T09:26:35.591Z,7.46
2019-01-09T09:29:05.033Z,6.98
2019-01-09T09:31:34.126Z,6.69
2019-01-09T09:34:03.171Z,6.24
2019-01-09T09:36:32.604Z,5.95
2019-01-09T09:39:01.639Z,5.86
2019-01-09T09:41:30.656Z,5.86
2019-01-09T09:44:00.021Z,5.86
2019-01-09T09:46:29.131Z,6.16
2019-01-09T09:48:58.086Z,6.95
2019-01-09T09:51:27.449Z,8.08
2019-01-09T09:53:56.640Z,8.62
2019-01-09T09:56:25.659Z,8.57
2019-01-09T09:58:54.681Z,8.10
2019-01-09T10:01:23.951Z,7.74
2019-01-09T10:03:53.334Z,7.34
2019-01-09T10:06:22.368Z,7.00
2019-01-09T10:08:51.442Z,6.90
2019-01-09T10:11:20.453Z,6.89
2019-01-09T10:13:49.869Z,6.95
2019-01-09T10:16:18.948Z,6.77
2019-01-09T10:18:47.997Z,6.73
2019-01-09T10:21:17.056Z,7.08
2019-01-09T10:23:46.092Z,7.35
2019-01-09T10:26:15.142Z,7.98
2019-01-09T10:28:44.558Z,9.12
2019-01-09T10:31:13.605Z,9.72
2019-01-09T10:33:43.074Z,10.50
2019-01-09T10:36:12.097Z,11.02
2019-01-09T10:38:41.131Z,11.00
2019-01-09T10:41:10.152Z,12.00
2019-01-09T10:43:39.500Z,12.92
2019-01-09T10:46:08.542Z,14.06
2019-01-09T10:48:37.870Z,15.43
2019-01-09T10:51:06.902Z,15.41
2019-01-09T10:53:35.942Z,15.28
2019-01-09T10:56:05.582Z,14.66
2019-01-09T10:58:34.665Z,12.43
2019-01-09T11:01:03.771Z,11.65
2019-01-09T11:03:32.766Z,10.56
2019-01-09T11:06:01.790Z,10.60
2019-01-09T11:08:30.820Z,10.11
2019-01-09T11:11:00.117Z,10.69
2019-01-09T11:13:29.162Z,11.26
2019-01-09T11:15:58.182Z,11.76
2019-01-09T11:18:27.198Z,12.70
2019-01-09T11:20:56.254Z,13.17
2019-01-09T11:23:25.283Z,11.88
2019-01-09T11:25:54.620Z,12.46
2019-01-09T11:28:23.934Z,12.66
2019-01-09T11:30:53.257Z,13.12
2019-01-09T11:33:22.322Z,13.93
2019-01-09T11:35:51.421Z,15.81
2019-01-09T11:38:20.710Z,15.60
2019-01-09T11:40:50.130Z,15.59
2019-01-09T11:43:19.459Z,15.68
2019-01-09T11:45:48.502Z,17.19
2019-01-09T11:48:17.552Z,16.49
2019-01-09T11:50:46.596Z,16.56
2019-01-09T11:53:15.921Z,17.05
2019-01-09T11:55:45.224Z,16.95
2019-01-09T11:58:14.293Z,17.06
2019-01-09T12:00:43.338Z,18.03
2019-01-09T12:03:12.346Z,18.41
2019-01-09T12:05:41.363Z,18.77
2019-01-09T12:08:10.546Z,16.68
2019-01-09T12:10:40.146Z,15.66
2019-01-09T12:13:09.203Z,15.12
2019-01-09T12:15:38.477Z,15.21
2019-01-09T12:18:07.520Z,15.76
2019-01-09T12:20:36.664Z,13.93
2019-01-09T12:23:05.656Z,13.81
2019-01-09T12:25:34.960Z,12.86
2019-01-09T12:28:03.978Z,12.48
2019-01-09T12:30:33.069Z,12.50
2019-01-09T12:33:02.050Z,12.90
2019-01-09T12:35:31.310Z,13.05
2019-01-09T12:38:00.335Z,13.12
2019-01-09T12:40:29.421Z,13.07
2019-01-09T12:42:58.449Z,12.86
2019-01-09T12:45:27.762Z,12.31
2019-01-09T12:47:57.025Z,12.49
2019-01-09T12:50:26.986Z,12.06
2019-01-09T12:52:56.035Z,11.47
2019-01-09T12:55:25.138Z,10.94
2019-01-09T12:57:54.730Z,10.79
2019-01-09T13:00:26.173Z,10.85
2019-01-09T13:02:55.314Z,11.42
2019-01-09T13:05:24.330Z,11.82
2019-01-09T13:07:53.330Z,10.82
2019-01-09T13:10:22.659Z,11.20
2019-01-09T13:12:52.885Z,10.94
2019-01-09T13:15:22.006Z,10.57
2019-01-09T13:17:51.057Z,10.46
2019-01-09T13:20:20.125Z,9.92
2019-01-09T13:22:49.269Z,9.33
2019-01-09T13:25:18.311Z,9.55
2019-01-09T13:27:47.346Z,9.55
2019-01-09T13:30:19.145Z,9.65
2019-01-09T13:32:48.139Z,9.97
2019-01-09T13:35:17.437Z,10.13
2019-01-09T13:37:46.785Z,10.13
2019-01-09T13:40:17.657Z,9.56
2019-01-09T13:42:46.748Z,9.56
2019-01-09T13:45:17.892Z,8.82
2019-01-09T13:47:47.266Z,8.63
2019-01-09T13:50:16.544Z,8.16
2019-01-09T13:52:45.773Z,7.82
2019-01-09T13:55:15.355Z,7.70
2019-01-09T13:57:45.026Z,7.68
2019-01-09T14:00:16.589Z,8.15
2019-01-09T14:02:45.888Z,8.78
2019-01-09T14:05:15.246Z,9.55
2019-01-09T14:07:44.260Z,9.79
2019-01-09T14:10:15.416Z,9.72
2019-01-09T14:12:45.059Z,9.80
2019-01-09T14:15:16.297Z,10.10
2019-01-09T14:17:45.354Z,9.41
2019-01-09T14:20:14.498Z,9.23
2019-01-09T14:22:43.958Z,9.59
2019-01-09T14:25:13.214Z,9.59
2019-01-09T14:27:42.223Z,9.84
2019-01-09T14:30:17.157Z,9.84
2019-01-09T14:32:46.460Z,9.28
2019-01-09T14:35:15.638Z,9.52
2019-01-09T14:37:45.077Z,9.83
2019-01-09T14:40:14.960Z,9.60
2019-01-09T14:42:44.032Z,9.63
2019-01-09T14:45:15.624Z,9.07
2019-01-09T14:47:44.998Z,9.07
2019-01-09T14:50:16.869Z,8.74
2019-01-09T14:52:46.280Z,8.92
2019-01-09T14:55:16.166Z,8.47
2019-01-09T14:57:45.519Z,8.68
2019-01-09T15:00:17.451Z,8.36
2019-01-09T15:02:46.500Z,8.38
2019-01-09T15:05:15.638Z,7.98
2019-01-09T15:07:44.628Z,8.13
2019-01-09T15:10:16.566Z,7.99
2019-01-09T15:12:46.057Z,7.88
2019-01-09T15:15:16.300Z,7.69
2019-01-09T15:17:45.339Z,7.59
2019-01-09T15:20:16.123Z,7.52
2019-01-09T15:22:45.474Z,7.53
2019-01-09T15:25:14.747Z,7.42
2019-01-09T15:27:43.744Z,7.49
2019-01-09T15:30:30.554Z,7.27
2019-01-09T15:32:59.566Z,7.15
2019-01-09T15:35:28.900Z,6.85
2019-01-09T15:37:58.272Z,6.78
2019-01-09T15:40:29.258Z,6.50
2019-01-09T15:42:58.337Z,6.23
2019-01-09T15:45:27.477Z,6.19
2019-01-09T15:47:56.477Z,6.08
2019-01-09T15:50:26.015Z,5.99
2019-01-09T15:52:55.233Z,5.94
2019-01-09T15:55:24.260Z,5.85
2019-01-09T15:57:54.426Z,5.96
2019-01-09T16:00:36.444Z,5.94
2019-01-09T16:03:06.292Z,6.04
2019-01-09T16:05:36.538Z,5.88
2019-01-09T16:08:06.357Z,6.01
2019-01-09T16:10:36.447Z,5.96
2019-01-09T16:13:05.929Z,5.84
2019-01-09T16:15:35.068Z,5.81
2019-01-09T16:18:04.376Z,6.03
2019-01-09T16:20:33.425Z,5.93
2019-01-09T16:23:02.831Z,5.84
2019-01-09T16:25:32.128Z,5.78
2019-01-09T16:28:01.165Z,5.78
2019-01-09T16:30:37.807Z,5.63
2019-01-09T16:33:07.215Z,5.63
2019-01-09T16:35:36.349Z,5.54
2019-01-09T16:38:06.153Z,5.41
2019-01-09T16:40:36.818Z,5.26
2019-01-09T16:43:06.263Z,5.08
2019-01-09T16:45:36.974Z,4.97
2019-01-09T16:48:06.242Z,4.92
2019-01-09T16:50:36.557Z,4.95
2019-01-09T16:53:06.257Z,4.97
2019-01-09T16:55:36.922Z,5.06
2019-01-09T16:58:06.297Z,5.10
2019-01-09T17:00:36.007Z,5.12
2019-01-09T17:03:05.472Z,5.11
2019-01-09T17:05:38.177Z,5.01
2019-01-09T17:08:08.083Z,4.97
2019-01-09T17:10:37.176Z,4.95
2019-01-09T17:13:08.294Z,4.85
2019-01-09T17:15:38.326Z,4.71
2019-01-09T17:18:08.515Z,4.63
2019-01-09T17:20:37.858Z,4.58
2019-01-09T17:23:06.976Z,4.52
2019-01-09T17:25:36.024Z,4.49
2019-01-09T17:28:05.577Z,4.46
2019-01-09T17:30:34.903Z,4.51
2019-01-09T17:33:03.997Z,4.50
2019-01-09T17:35:33.558Z,4.52
2019-01-09T17:38:02.892Z,4.44
2019-01-09T17:40:40.686Z,4.52
2019-01-09T17:43:03.113Z,4.47
2019-01-09T17:45:32.877Z,4.38
2019-01-09T17:48:02.026Z,4.41
2019-01-09T17:50:38.928Z,4.36
2019-01-09T17:53:07.988Z,4.31
2019-01-09T17:55:37.061Z,4.35
2019-01-09T17:58:06.181Z,4.38
2019-01-09T18:00:38.295Z,4.35
2019-01-09T18:03:07.490Z,4.31
2019-01-09T18:05:39.807Z,4.22
2019-01-09T18:08:10.968Z,4.27
2019-01-09T18:10:39.652Z,4.46
2019-01-09T18:13:12.353Z,4.71
2019-01-09T18:15:41.950Z,4.73
2019-01-09T18:18:11.009Z,4.68
2019-01-09T18:20:40.080Z,4.77
2019-01-09T18:23:09.374Z,4.76
2019-01-09T18:25:38.745Z,4.97
2019-01-09T18:28:07.836Z,4.99
2019-01-09T18:31:03.684Z,5.29
2019-01-09T18:33:43.495Z,5.25
2019-01-09T18:36:50.382Z,5.19
2019-01-09T18:39:52.435Z,5.24
2019-01-09T18:42:40.801Z,5.17
2019-01-09T18:45:43.750Z,5.10
2019-01-09T18:48:57.389Z,5.10
2019-01-09T18:52:03.633Z,5.04
2019-01-09T18:54:32.723Z,4.91
2019-01-09T18:57:01.969Z,4.61
2019-01-09T18:59:31.039Z,4.54
2019-01-09T19:02:00.063Z,4.31
2019-01-09T19:04:29.891Z,4.13
2019-01-09T19:07:08.318Z,4.02
2019-01-09T19:09:37.941Z,3.85
2019-01-09T19:12:07.667Z,3.66
2019-01-09T19:14:37.069Z,3.64
2019-01-09T19:17:07.173Z,3.58
2019-01-09T19:19:36.221Z,3.54
2019-01-09T19:22:05.797Z,3.45
2019-01-09T19:24:34.863Z,3.40
2019-01-09T19:27:03.923Z,3.35
2019-01-09T19:29:33.070Z,3.35
2019-01-09T19:32:02.091Z,3.39
2019-01-09T19:34:31.110Z,3.35
2019-01-09T19:37:00.483Z,3.38
2019-01-09T19:39:30.040Z,3.42
2019-01-09T19:41:59.211Z,3.33
2019-01-09T19:44:28.647Z,3.36
2019-01-09T19:46:57.759Z,3.31
2019-01-09T19:49:26.785Z,3.31
2019-01-09T19:51:55.879Z,3.29
2019-01-09T19:54:24.916Z,3.30
2019-01-09T19:56:54.059Z,3.29
2019-01-09T19:59:23.087Z,3.29
2019-01-09T20:01:52.145Z,3.29
2019-01-09T20:04:21.639Z,3.31
2019-01-09T20:06:50.949Z,3.37
2019-01-09T20:09:20.068Z,3.37
2019-01-09T20:11:49.206Z,3.33
2019-01-09T20:14:18.350Z,3.28
2019-01-09T20:16:47.419Z,3.24
2019-01-09T20:19:16.474Z,3.15
2019-01-09T20:21:48.773Z,3.10
2019-01-09T20:24:19.422Z,3.11
2019-01-09T20:26:49.028Z,2.97
2019-01-09T20:29:18.245Z,2.96
2019-01-09T20:31:47.315Z,2.91
2019-01-09T20:34:16.340Z,2.87
2019-01-09T20:36:45.391Z,2.88
2019-01-09T20:39:14.413Z,2.88
2019-01-09T20:41:43.459Z,2.87
2019-01-09T20:44:12.504Z,2.86
2019-01-09T20:46:42.056Z,2.84
2019-01-09T20:49:11.149Z,2.83
2019-01-09T20:51:40.198Z,2.80
2019-01-09T20:54:09.438Z,2.80
2019-01-09T20:56:38.896Z,2.78
2019-01-09T20:59:08.062Z,2.77
2019-01-09T21:01:37.444Z,2.75
2019-01-09T21:04:06.561Z,2.74
2019-01-09T21:06:35.915Z,2.72
2019-01-09T21:09:07.109Z,2.72
2019-01-09T21:11:44.114Z,2.71
2019-01-09T21:14:08.181Z,2.71
2019-01-09T21:16:37.344Z,2.73
2019-01-09T21:19:06.469Z,2.68
2019-01-09T21:21:35.557Z,2.65
2019-01-09T21:24:04.935Z,2.62
2019-01-09T21:26:33.962Z,2.58
2019-01-09T21:29:03.025Z,2.59
2019-01-09T21:31:32.109Z,2.60
2019-01-09T21:34:01.497Z,2.65
2019-01-09T21:36:31.147Z,2.63
2019-01-09T21:39:00.187Z,2.64
2019-01-09T21:41:29.767Z,2.61
2019-01-09T21:43:58.806Z,2.61
2019-01-09T21:46:27.858Z,2.61
2019-01-09T21:48:57.428Z,2.60
2019-01-09T21:51:26.528Z,2.61
2019-01-09T21:53:55.668Z,2.60
2019-01-09T21:56:25.048Z,2.57
2019-01-09T21:58:54.069Z,2.52
2019-01-09T22:01:23.189Z,2.51
2019-01-09T22:03:52.192Z,2.50
2019-01-09T22:06:21.282Z,2.41
2019-01-09T22:08:50.373Z,2.35
2019-01-09T22:11:19.525Z,2.36
2019-01-09T22:13:48.573Z,2.23
2019-01-09T22:16:17.865Z,2.31
2019-01-09T22:18:46.933Z,2.27
2019-01-09T22:21:15.935Z,2.28
2019-01-09T22:23:45.217Z,2.31
2019-01-09T22:26:14.281Z,2.37
2019-01-09T22:28:43.262Z,2.40
2019-01-09T22:31:13.862Z,2.45
2019-01-09T22:33:43.297Z,2.45
2019-01-09T22:36:12.277Z,2.48
2019-01-09T22:38:41.685Z,2.49
2019-01-09T22:41:10.713Z,2.51
2019-01-09T22:43:40.128Z,2.54
2019-01-09T22:46:09.171Z,2.64
2019-01-09T22:48:38.519Z,2.65
2019-01-09T22:51:07.585Z,2.68
2019-01-09T22:53:36.794Z,2.79
2019-01-09T22:56:05.881Z,2.78
2019-01-09T22:58:35.181Z,2.80
2019-01-09T23:01:18.300Z,2.81
2019-01-09T23:03:48.718Z,2.93
2019-01-09T23:06:17.879Z,3.01
2019-01-09T23:08:46.973Z,3.03
2019-01-09T23:11:16.012Z,3.14
2019-01-09T23:13:45.138Z,3.22
2019-01-09T23:16:14.559Z,3.14
2019-01-09T23:18:43.746Z,3.11
2019-01-09T23:21:12.783Z,3.16
2019-01-09T23:23:41.960Z,3.08
2019-01-09T23:26:11.010Z,3.03
2019-01-09T23:28:40.023Z,2.95
2019-01-09T23:31:09.540Z,2.84
2019-01-09T23:33:38.609Z,2.81
2019-01-09T23:36:07.980Z,2.75
2019-01-09T23:38:37.025Z,2.64
2019-01-09T23:41:06.989Z,2.61
2019-01-09T23:43:36.082Z,2.56
2019-01-09T23:46:06.189Z,2.56
2019-01-09T23:48:35.838Z,2.55
2019-01-09T23:51:05.039Z,2.47
2019-01-09T23:53:34.055Z,2.43
2019-01-09T23:56:03.482Z,2.43
2019-01-09T23:58:32.523Z,2.40
